createdAt,value
2022-08-03T00:02:35.914Z,20.90
2022-08-03T00:05:40.356Z,21.00
2022-08-03T00:09:03.204Z,21.00
2022-08-03T00:12:06.993Z,21.00
2022-08-03T00:15:11.292Z,21.00
2022-08-03T00:18:18.426Z,21.00
2022-08-03T00:21:22.648Z,20.90
2022-08-03T00:24:25.508Z,20.90
2022-08-03T00:27:28.433Z,20.90
2022-08-03T00:30:36.442Z,20.90
2022-08-03T00:33:58.229Z,20.80
2022-08-03T00:37:03.525Z,20.80
2022-08-03T00:40:07.676Z,20.90
2022-08-03T00:43:10.770Z,20.80
2022-08-03T00:46:17.532Z,20.80
2022-08-03T00:49:23.873Z,20.80
2022-08-03T00:52:28.142Z,20.80
2022-08-03T00:55:31.104Z,20.80
2022-08-03T00:58:35.654Z,20.80
2022-08-03T01:01:38.634Z,20.80
2022-08-03T01:04:41.559Z,20.80
2022-08-03T01:08:00.597Z,20.80
2022-08-03T01:11:12.088Z,20.80
2022-08-03T01:14:18.764Z,20.70
2022-08-03T01:17:36.897Z,20.70
2022-08-03T01:20:44.700Z,20.70
2022-08-03T01:24:07.049Z,20.70
2022-08-03T01:27:15.988Z,20.70
2022-08-03T01:30:20.428Z,20.70
2022-08-03T01:33:26.395Z,20.60
2022-08-03T01:36:35.274Z,20.60
2022-08-03T01:39:40.516Z,20.60
2022-08-03T01:42:45.326Z,20.70
2022-08-03T01:45:50.088Z,20.70
2022-08-03T01:48:54.082Z,20.60
2022-08-03T01:52:04.367Z,20.70
2022-08-03T01:55:09.663Z,20.70
2022-08-03T01:58:14.681Z,20.70
2022-08-03T02:01:20.192Z,20.70
2022-08-03T02:04:24.822Z,20.70
2022-08-03T02:07:29.976Z,20.70
2022-08-03T02:10:35.913Z,20.70
2022-08-03T02:13:40.334Z,20.80
2022-08-03T02:16:45.771Z,20.80
2022-08-03T02:19:49.810Z,20.80
2022-08-03T02:22:52.729Z,20.80
2022-08-03T02:26:02.122Z,20.90
2022-08-03T02:29:11.880Z,20.80
2022-08-03T02:32:21.361Z,20.90
2022-08-03T02:35:26.462Z,20.90
2022-08-03T02:38:32.838Z,20.90
2022-08-03T02:41:42.917Z,20.90
2022-08-03T02:44:49.377Z,20.90
2022-08-03T02:47:56.450Z,20.90
2022-08-03T02:51:01.735Z,20.90
2022-08-03T02:54:05.924Z,20.90
2022-08-03T02:57:10.467Z,20.90
2022-08-03T03:00:19.667Z,20.90
2022-08-03T03:03:39.951Z,20.90
2022-08-03T03:06:48.715Z,20.90
2022-08-03T03:09:53.379Z,20.90
2022-08-03T03:12:59.112Z,20.90
2022-08-03T03:16:05.259Z,20.90
2022-08-03T03:19:12.388Z,20.90
2022-08-03T03:22:16.690Z,20.80
2022-08-03T03:25:21.195Z,20.80
2022-08-03T03:28:25.153Z,20.70
2022-08-03T03:31:28.136Z,20.70
2022-08-03T03:34:32.622Z,20.70
2022-08-03T03:37:36.200Z,20.70
2022-08-03T03:40:39.575Z,20.70
2022-08-03T03:43:43.033Z,20.70
2022-08-03T03:46:45.981Z,20.70
2022-08-03T03:49:50.560Z,20.70
2022-08-03T03:52:55.443Z,20.70
2022-08-03T03:56:02.481Z,20.60
2022-08-03T03:59:05.856Z,20.60
2022-08-03T04:02:09.685Z,20.60
2022-08-03T04:05:31.824Z,20.60
2022-08-03T04:08:52.391Z,20.60
2022-08-03T04:11:59.664Z,20.60
2022-08-03T04:15:04.550Z,20.60
2022-08-03T04:18:10.778Z,20.60
2022-08-03T04:21:18.577Z,20.60
2022-08-03T04:24:26.540Z,20.60
2022-08-03T04:27:34.180Z,20.60
2022-08-03T04:30:39.707Z,20.60
2022-08-03T04:33:43.761Z,20.60
2022-08-03T04:36:51.197Z,20.60
2022-08-03T04:39:57.731Z,20.60
2022-08-03T04:43:01.549Z,20.60
2022-08-03T04:46:05.760Z,20.60
2022-08-03T04:49:09.173Z,20.70
2022-08-03T04:52:15.760Z,20.70
2022-08-03T04:55:27.200Z,20.70
2022-08-03T04:58:30.075Z,20.80
2022-08-03T05:01:32.996Z,20.80
2022-08-03T05:04:35.840Z,20.90
2022-08-03T05:07:40.118Z,21.00
2022-08-03T05:10:42.965Z,21.20
2022-08-03T05:13:46.163Z,21.40
2022-08-03T05:16:49.037Z,21.60
2022-08-03T05:19:54.247Z,21.70
2022-08-03T05:22:59.253Z,22.00
2022-08-03T05:26:02.077Z,22.10
2022-08-03T05:29:05.043Z,22.40
2022-08-03T05:32:08.503Z,22.60
2022-08-03T05:36:01.895Z,22.90
2022-08-03T05:38:36.369Z,23.10
2022-08-03T05:41:39.193Z,23.30
2022-08-03T05:44:42.157Z,23.60
2022-08-03T05:47:45.507Z,23.90
2022-08-03T05:50:48.456Z,24.20
2022-08-03T05:53:52.652Z,24.40
2022-08-03T05:56:55.472Z,24.70
2022-08-03T05:59:58.974Z,25.00
2022-08-03T06:03:02.392Z,25.20
2022-08-03T06:06:05.462Z,25.20
2022-08-03T06:09:10.486Z,25.30
2022-08-03T06:12:14.321Z,25.50
2022-08-03T06:15:18.655Z,25.50
2022-08-03T06:18:21.602Z,25.60
2022-08-03T06:21:24.433Z,25.90
2022-08-03T06:24:31.425Z,25.90
2022-08-03T06:27:37.359Z,26.00
2022-08-03T06:30:40.537Z,26.10
2022-08-03T06:34:30.096Z,26.40
2022-08-03T06:37:06.241Z,26.70
2022-08-03T06:40:13.876Z,26.90
2022-08-03T06:43:16.993Z,27.20
2022-08-03T06:46:20.214Z,27.50
2022-08-03T06:49:23.292Z,27.80
2022-08-03T06:52:38.031Z,28.00
2022-08-03T06:55:42.713Z,28.20
2022-08-03T06:58:46.915Z,28.20
2022-08-03T07:01:49.808Z,28.00
2022-08-03T07:04:52.722Z,28.30
2022-08-03T07:07:57.073Z,28.10
2022-08-03T07:11:02.375Z,28.20
2022-08-03T07:14:05.814Z,28.50
2022-08-03T07:17:11.656Z,28.70
2022-08-03T07:20:15.252Z,28.70
2022-08-03T07:23:19.358Z,28.80
2022-08-03T07:26:23.687Z,28.90
2022-08-03T07:29:26.672Z,28.80
2022-08-03T07:32:31.528Z,28.90
2022-08-03T07:35:34.676Z,28.80
2022-08-03T07:38:37.799Z,28.50
2022-08-03T07:41:41.983Z,28.50
2022-08-03T07:44:44.862Z,28.30
2022-08-03T07:47:53.465Z,28.30
2022-08-03T07:50:56.827Z,28.10
2022-08-03T07:54:00.785Z,28.10
2022-08-03T07:57:05.254Z,28.20
2022-08-03T08:00:13.727Z,28.20
2022-08-03T08:03:16.572Z,28.20
2022-08-03T08:06:19.493Z,28.10
2022-08-03T08:09:23.448Z,28.10
2022-08-03T08:12:27.677Z,28.10
2022-08-03T08:15:31.582Z,28.10
2022-08-03T08:18:34.518Z,28.20
2022-08-03T08:21:53.039Z,28.20
2022-08-03T08:25:01.262Z,28.20
2022-08-03T08:28:30.619Z,28.20
2022-08-03T08:31:29.044Z,28.30
2022-08-03T08:34:31.905Z,28.20
2022-08-03T08:37:35.649Z,28.30
2022-08-03T08:40:38.522Z,28.40
2022-08-03T08:43:43.415Z,28.60
2022-08-03T08:46:47.934Z,28.60
2022-08-03T08:50:08.982Z,28.60
2022-08-03T08:53:18.177Z,28.70
2022-08-03T08:56:25.378Z,28.80
2022-08-03T08:59:47.681Z,29.00
2022-08-03T09:02:50.957Z,29.10
2022-08-03T09:05:56.152Z,29.10
2022-08-03T09:08:59.458Z,29.30
2022-08-03T09:12:27.176Z,29.20
2022-08-03T09:15:28.388Z,29.20
2022-08-03T09:18:32.602Z,29.30
2022-08-03T09:21:35.843Z,29.40
2022-08-03T09:24:41.839Z,29.50
2022-08-03T09:27:45.950Z,29.70
2022-08-03T09:31:00.726Z,29.80
2022-08-03T09:34:05.292Z,29.80
2022-08-03T09:37:15.158Z,30.00
2022-08-03T09:40:35.723Z,29.90
2022-08-03T09:43:47.552Z,30.00
2022-08-03T09:46:53.322Z,30.00
2022-08-03T09:50:02.166Z,30.10
2022-08-03T09:53:05.209Z,30.20
2022-08-03T09:56:35.654Z,30.30
2022-08-03T09:59:32.593Z,30.40
2022-08-03T10:02:38.622Z,30.40
2022-08-03T10:05:44.530Z,30.50
2022-08-03T10:08:47.372Z,30.50
2022-08-03T10:11:50.425Z,30.60
2022-08-03T10:14:53.766Z,30.50
2022-08-03T10:17:58.024Z,30.50
2022-08-03T10:21:05.628Z,30.60
2022-08-03T10:24:11.005Z,30.80
2022-08-03T10:27:15.744Z,30.80
2022-08-03T10:30:19.365Z,30.90
2022-08-03T10:33:51.744Z,31.00
2022-08-03T10:36:59.878Z,31.10
2022-08-03T10:40:04.541Z,31.20
2022-08-03T10:43:11.257Z,31.30
2022-08-03T10:46:16.816Z,31.30
2022-08-03T10:49:35.179Z,31.30
2022-08-03T10:52:55.461Z,31.10
2022-08-03T10:56:16.954Z,31.10
2022-08-03T10:59:58.058Z,31.20
2022-08-03T11:03:09.934Z,31.40
2022-08-03T11:06:20.208Z,31.40
2022-08-03T11:09:23.005Z,31.50
2022-08-03T11:12:30.855Z,31.60
2022-08-03T11:15:35.969Z,31.70
2022-08-03T11:18:57.286Z,31.60
2022-08-03T11:22:01.788Z,31.70
2022-08-03T11:25:05.260Z,31.80
2022-08-03T11:28:26.217Z,31.70
2022-08-03T11:31:50.252Z,31.70
2022-08-03T11:35:09.093Z,31.70
2022-08-03T11:38:13.813Z,31.90
2022-08-03T11:41:43.369Z,31.90
2022-08-03T11:44:48.848Z,32.10
2022-08-03T11:47:55.379Z,32.10
2022-08-03T11:50:58.312Z,32.30
2022-08-03T11:54:07.088Z,32.40
2022-08-03T11:57:10.198Z,32.40
2022-08-03T12:00:30.270Z,32.50
2022-08-03T12:03:35.561Z,32.50
2022-08-03T12:06:52.710Z,32.50
2022-08-03T12:10:11.002Z,32.50
2022-08-03T12:14:33.127Z,32.50
2022-08-03T12:16:36.933Z,32.40
2022-08-03T12:19:45.851Z,32.40
2022-08-03T12:22:48.787Z,32.30
2022-08-03T12:25:52.956Z,32.30
2022-08-03T12:28:58.325Z,32.40
2022-08-03T12:32:01.453Z,32.40
2022-08-03T12:35:05.970Z,32.50
2022-08-03T12:38:08.879Z,32.50
2022-08-03T12:41:16.000Z,32.40
2022-08-03T12:44:18.926Z,32.30
2022-08-03T12:47:21.830Z,32.40
2022-08-03T12:50:26.564Z,32.50
2022-08-03T12:53:31.016Z,32.50
2022-08-03T12:56:35.368Z,32.60
2022-08-03T12:59:42.411Z,32.70
2022-08-03T13:03:39.664Z,32.80
2022-08-03T13:06:27.523Z,32.90
2022-08-03T13:09:31.890Z,32.90
2022-08-03T13:12:48.352Z,33.10
2022-08-03T13:15:52.269Z,33.10
2022-08-03T13:18:56.207Z,33.20
2022-08-03T13:22:03.664Z,33.30
2022-08-03T13:25:08.485Z,33.30
2022-08-03T13:28:14.461Z,33.30
2022-08-03T13:31:17.812Z,33.30
2022-08-03T13:34:23.470Z,33.10
2022-08-03T13:37:27.660Z,33.10
2022-08-03T13:40:38.334Z,33.20
2022-08-03T13:43:46.182Z,33.20
2022-08-03T13:46:49.457Z,33.40
2022-08-03T13:49:54.171Z,33.40
2022-08-03T13:53:03.381Z,33.60
2022-08-03T13:56:06.274Z,33.60
2022-08-03T13:59:11.033Z,33.70
2022-08-03T14:02:14.014Z,33.80
2022-08-03T14:05:16.896Z,33.70
2022-08-03T14:08:19.741Z,33.80
2022-08-03T14:11:22.664Z,33.80
2022-08-03T14:14:26.866Z,33.80
2022-08-03T14:17:37.482Z,33.80
2022-08-03T14:20:56.370Z,33.80
2022-08-03T14:24:00.296Z,33.70
2022-08-03T14:27:08.825Z,33.60
2022-08-03T14:30:14.950Z,33.70
2022-08-03T14:33:17.913Z,33.80
2022-08-03T14:36:20.843Z,33.70
2022-08-03T14:39:23.762Z,33.70
2022-08-03T14:42:26.630Z,33.60
2022-08-03T14:45:30.967Z,33.60
2022-08-03T14:50:34.123Z,33.80
2022-08-03T14:51:56.724Z,33.80
2022-08-03T14:55:00.081Z,33.90
2022-08-03T14:58:05.690Z,34.00
2022-08-03T15:02:02.856Z,34.10
2022-08-03T15:04:47.197Z,34.20
2022-08-03T15:07:50.060Z,34.20
2022-08-03T15:10:53.160Z,34.20
2022-08-03T15:13:56.076Z,34.20
2022-08-03T15:17:00.320Z,34.30
2022-08-03T15:20:19.570Z,34.40
2022-08-03T15:23:26.414Z,34.20
2022-08-03T15:26:35.358Z,34.20
2022-08-03T15:30:07.717Z,34.20
2022-08-03T15:33:07.253Z,34.20
2022-08-03T15:36:10.200Z,34.10
2022-08-03T15:39:13.258Z,34.10
2022-08-03T15:42:16.188Z,34.00
2022-08-03T15:45:20.347Z,33.80
2022-08-03T15:48:26.448Z,33.80
2022-08-03T15:51:29.789Z,33.60
2022-08-03T15:54:32.643Z,33.70
2022-08-03T15:59:11.351Z,33.80
2022-08-03T16:01:02.068Z,33.90
2022-08-03T16:04:06.412Z,33.90
2022-08-03T16:07:12.673Z,33.90
2022-08-03T16:10:17.636Z,33.90
2022-08-03T16:13:20.534Z,33.80
2022-08-03T16:16:23.673Z,33.80
2022-08-03T16:19:28.648Z,33.80
2022-08-03T16:22:31.633Z,33.70
2022-08-03T16:25:36.053Z,33.50
2022-08-03T16:28:38.939Z,33.60
2022-08-03T16:31:50.857Z,33.40
2022-08-03T16:34:55.745Z,33.30
2022-08-03T16:37:58.766Z,33.30
2022-08-03T16:41:01.573Z,33.20
2022-08-03T16:44:09.577Z,33.00
2022-08-03T16:47:21.913Z,32.90
2022-08-03T16:50:26.979Z,32.80
2022-08-03T16:53:51.788Z,32.70
2022-08-03T16:56:52.839Z,32.70
2022-08-03T16:59:56.229Z,32.60
2022-08-03T17:03:04.067Z,32.50
2022-08-03T17:06:09.374Z,32.50
2022-08-03T17:09:14.333Z,32.40
2022-08-03T17:12:17.619Z,32.30
2022-08-03T17:15:21.540Z,32.10
2022-08-03T17:18:47.850Z,32.00
2022-08-03T17:22:04.254Z,31.90
2022-08-03T17:25:10.577Z,31.90
2022-08-03T17:28:48.896Z,31.70
2022-08-03T17:31:53.710Z,31.60
2022-08-03T17:34:56.980Z,31.50
2022-08-03T17:38:03.262Z,31.40
2022-08-03T17:41:10.609Z,31.40
2022-08-03T17:44:28.810Z,31.30
2022-08-03T17:47:42.165Z,31.20
2022-08-03T17:50:51.879Z,31.10
2022-08-03T17:54:05.107Z,31.00
2022-08-03T17:57:27.485Z,30.90
2022-08-03T18:00:56.345Z,30.80
2022-08-03T18:04:10.895Z,30.90
2022-08-03T18:07:18.852Z,30.70
2022-08-03T18:10:28.247Z,30.70
2022-08-03T18:13:35.973Z,30.70
2022-08-03T18:16:45.818Z,30.50
2022-08-03T18:20:02.766Z,30.40
2022-08-03T18:23:10.918Z,30.30
2022-08-03T18:26:30.689Z,30.20
2022-08-03T18:29:37.116Z,30.10
2022-08-03T18:32:41.150Z,30.10
2022-08-03T18:35:53.717Z,29.90
2022-08-03T18:38:58.529Z,29.90
2022-08-03T18:42:05.425Z,29.80
2022-08-03T18:45:56.173Z,29.70
2022-08-03T18:48:41.486Z,29.70
2022-08-03T18:51:55.037Z,29.50
2022-08-03T18:55:19.876Z,29.40
2022-08-03T18:58:33.171Z,29.30
2022-08-03T19:01:58.997Z,29.10
2022-08-03T19:05:07.994Z,29.00
2022-08-03T19:08:17.836Z,28.80
2022-08-03T19:14:54.749Z,28.50
2022-08-03T19:18:00.829Z,28.40
2022-08-03T19:21:12.766Z,28.30
2022-08-03T19:24:20.917Z,28.10
2022-08-03T19:27:27.399Z,27.90
2022-08-03T19:30:38.909Z,27.80
2022-08-03T19:33:55.913Z,27.70
2022-08-03T19:37:00.521Z,27.60
2022-08-03T19:40:03.516Z,27.40
2022-08-03T19:43:10.803Z,27.30
2022-08-03T19:46:22.639Z,27.30
2022-08-03T19:50:05.128Z,27.10
2022-08-03T19:53:05.032Z,27.00
2022-08-03T19:56:08.419Z,26.90
2022-08-03T19:59:14.492Z,26.80
2022-08-03T20:02:27.195Z,26.70
2022-08-03T20:05:44.911Z,26.60
2022-08-03T20:08:54.921Z,26.50
2022-08-03T20:11:58.838Z,26.40
2022-08-03T20:15:02.064Z,26.30
2022-08-03T20:18:06.391Z,26.30
2022-08-03T20:21:20.373Z,26.20
2022-08-03T20:24:27.201Z,26.10
2022-08-03T20:28:08.149Z,26.00
2022-08-03T20:30:59.937Z,25.90
2022-08-03T20:34:05.034Z,25.90
2022-08-03T20:37:09.531Z,25.80
2022-08-03T20:40:15.076Z,25.70
2022-08-03T20:43:19.987Z,25.70
2022-08-03T20:46:31.293Z,25.60
2022-08-03T20:49:46.368Z,25.50
2022-08-03T20:52:50.668Z,25.50
2022-08-03T20:56:01.936Z,25.40
2022-08-03T20:59:07.025Z,25.40
2022-08-03T21:02:19.906Z,25.30
2022-08-03T21:05:51.567Z,25.30
2022-08-03T21:09:05.085Z,25.20
2022-08-03T21:12:15.449Z,25.20
2022-08-03T21:13:12.763Z,28.70
2022-08-03T21:16:12.868Z,25.10
2022-08-03T21:18:52.230Z,25.10
2022-08-03T21:21:57.054Z,25.00
2022-08-03T21:25:03.205Z,24.90
2022-08-03T21:28:08.565Z,24.90
2022-08-03T21:31:12.021Z,24.80
2022-08-03T21:34:15.267Z,24.80
2022-08-03T21:37:19.525Z,24.80
2022-08-03T21:40:22.469Z,24.70
2022-08-03T21:43:25.610Z,24.60
2022-08-03T21:46:34.049Z,24.60
2022-08-03T21:50:02.669Z,24.60
2022-08-03T21:53:02.328Z,24.60
2022-08-03T21:56:10.915Z,24.50
2022-08-03T21:59:18.362Z,24.50
2022-08-03T22:02:24.535Z,24.40
2022-08-03T22:05:43.322Z,24.30
2022-08-03T22:08:48.721Z,24.30
2022-08-03T22:11:54.079Z,24.30
2022-08-03T22:15:01.380Z,24.30
2022-08-03T22:18:05.881Z,24.20
2022-08-03T22:21:11.527Z,24.20
2022-08-03T22:24:19.363Z,24.20
2022-08-03T22:27:31.456Z,24.20
2022-08-03T22:30:34.859Z,24.10
2022-08-03T22:33:38.709Z,24.10
2022-08-03T22:36:41.838Z,24.10
2022-08-03T22:39:46.355Z,24.00
2022-08-03T22:42:51.931Z,24.00
2022-08-03T22:46:10.599Z,24.00
2022-08-03T22:49:17.358Z,24.00
2022-08-03T22:52:21.336Z,23.90
2022-08-03T22:55:26.077Z,23.90
2022-08-03T22:58:29.061Z,23.90
2022-08-03T23:01:38.136Z,23.80
2022-08-03T23:04:43.366Z,23.70
2022-08-03T23:07:49.939Z,23.70
2022-08-03T23:10:57.307Z,23.70
2022-08-03T23:14:01.732Z,23.70
2022-08-03T23:17:08.249Z,23.70
2022-08-03T23:20:11.990Z,23.70
2022-08-03T23:23:15.966Z,23.70
2022-08-03T23:26:26.660Z,23.60
2022-08-03T23:29:31.316Z,23.60
2022-08-03T23:32:36.107Z,23.60
2022-08-03T23:36:29.637Z,23.50
2022-08-03T23:39:23.047Z,23.50
2022-08-03T23:42:28.240Z,23.50
2022-08-03T23:45:34.801Z,23.50
2022-08-03T23:48:37.817Z,23.40
2022-08-03T23:51:48.798Z,23.40
2022-08-03T23:55:01.005Z,23.40
2022-08-03T23:58:18.052Z,23.40
